Time;durP1;ratioP1;P1;durP2;ratioP2;P2;SDS_P1;SDS_P2;PMS_P1;PMS_P2;Temp;Humidity;BMP_temperature;BMP_pressure;BME280_temperature;BME280_humidity;BME280_pressure;Samples;Min_cycle;Max_cycle;Signal;HPM_P1;HPM_P2
2022/02/24 05:48:29;;;;;;;10.43;5.63;;;;;;;-3.10;74.15;100585.53;5040799;27;1324610;-74
2022/02/24 05:50:54;;;;;;;12.05;5.95;;;;;;;-3.03;74.70;100574.78;5066584;27;105954;-73
2022/02/24 05:53:20;;;;;;;14.80;6.07;;;;;;;-2.90;74.80;100568.06;5065464;27;106206;-79
2022/02/24 05:55:45;;;;;;;18.58;5.50;;;;;;;-2.76;75.39;100572.63;5065129;27;115718;-75
2022/02/24 05:58:10;;;;;;;10.98;5.57;;;;;;;-2.62;75.41;100570.19;5065223;27;105915;-75
2022/02/24 06:00:35;;;;;;;11.90;4.65;;;;;;;-2.46;75.83;100567.66;5066492;27;106109;-72
2022/02/24 06:03:01;;;;;;;14.25;7.10;;;;;;;-2.30;75.77;100569.47;5065121;27;106881;-72
2022/02/24 06:05:27;;;;;;;13.45;6.82;;;;;;;-2.15;75.76;100563.47;5065407;27;106465;-75
2022/02/24 06:07:52;;;;;;;16.20;7.60;;;;;;;-2.02;75.63;100557.59;5053084;27;106481;-74
2022/02/24 06:10:17;;;;;;;21.40;8.52;;;;;;;-1.88;75.54;100549.91;5046084;27;106014;-74
2022/02/24 06:12:43;;;;;;;22.70;9.95;;;;;;;-1.74;75.10;100544.75;5045117;27;106175;-74
2022/02/24 06:15:10;;;;;;;27.45;11.88;;;;;;;-1.58;75.12;100543.97;5044436;27;107557;-75
2022/02/24 06:17:35;;;;;;;22.13;9.93;;;;;;;-1.44;75.84;100546.63;5043847;27;105909;-73
2022/02/24 06:20:01;;;;;;;19.30;13.18;;;;;;;-1.26;75.21;100536.09;5044057;27;105929;-74
2022/02/24 06:22:27;;;;;;;21.77;10.82;;;;;;;-1.07;75.32;100535.91;5042839;27;106125;-75
2022/02/24 06:24:52;;;;;;;15.98;7.22;;;;;;;-0.88;75.53;100525.25;5043911;27;105925;-74
2022/02/24 06:27:21;;;;;;;17.85;7.38;;;;;;;-0.67;75.51;100533.59;5044790;27;106135;-83
2022/02/24 06:29:47;;;;;;;19.17;8.77;;;;;;;-0.45;75.83;100527.13;5044959;27;106015;-74
2022/02/24 06:32:13;;;;;;;23.92;10.05;;;;;;;-0.25;75.48;100526.75;5045004;27;105834;-73
2022/02/24 06:34:39;;;;;;;20.90;7.60;;;;;;;-0.06;75.89;100523.03;5042636;27;107263;-76
2022/02/24 06:37:05;;;;;;;15.60;8.68;;;;;;;0.15;75.37;100526.09;5044612;27;105793;-73
2022/02/24 06:39:31;;;;;;;17.05;8.40;;;;;;;0.31;75.31;100520.75;5010290;27;106388;-72
2022/02/24 06:41:56;;;;;;;15.73;7.03;;;;;;;0.51;75.42;100511.66;5044364;27;107469;-74
2022/02/24 06:44:21;;;;;;;16.60;6.78;;;;;;;0.69;75.41;100506.19;5043107;27;120140;-73
2022/02/24 06:46:47;;;;;;;10.07;5.13;;;;;;;0.85;74.93;100501.63;5040969;27;106656;-76
2022/02/24 06:49:12;;;;;;;11.57;5.15;;;;;;;0.98;74.53;100499.84;5045573;27;105857;-74
2022/02/24 06:51:38;;;;;;;12.82;5.07;;;;;;;1.20;74.71;100497.59;5044599;27;106242;-74
2022/02/24 06:54:03;;;;;;;7.82;3.55;;;;;;;1.41;74.25;100505.81;5044573;27;106368;-78
2022/02/24 06:56:29;;;;;;;11.95;4.75;;;;;;;1.60;74.02;100490.50;4990377;27;106345;-76
2022/02/24 06:58:54;;;;;;;6.57;3.20;;;;;;;1.78;73.56;100492.81;5031940;27;105786;-74
2022/02/24 07:01:19;;;;;;;11.93;4.70;;;;;;;1.96;73.17;100496.78;5029867;28;106596;-73
2022/02/24 07:03:45;;;;;;;17.13;4.90;;;;;;;2.15;73.37;100480.56;5030738;28;106151;-72
2022/02/24 07:06:11;;;;;;;11.70;3.95;;;;;;;2.40;72.74;100483.25;5030714;28;105894;-74
2022/02/24 07:08:37;;;;;;;10.57;4.75;;;;;;;2.59;72.64;100483.59;5030981;28;105945;-73
2022/02/24 07:11:02;;;;;;;16.88;4.15;;;;;;;2.81;72.52;100476.75;5031154;28;106365;-72
2022/02/24 07:13:28;;;;;;;8.43;4.28;;;;;;;3.04;72.02;100489.03;5030421;28;106033;-76
2022/02/24 07:15:53;;;;;;;12.43;3.85;;;;;;;3.29;71.08;100497.72;5030848;28;106346;-76
2022/02/24 07:18:19;;;;;;;8.10;3.17;;;;;;;3.50;70.81;100475.97;5028906;28;106332;-78
2022/02/24 07:20:44;;;;;;;6.75;2.45;;;;;;;3.72;70.01;100469.94;5028840;28;106445;-76
2022/02/24 07:23:09;;;;;;;6.15;3.20;;;;;;;4.00;69.86;100475.66;5027735;28;106580;-76
2022/02/24 07:25:35;;;;;;;6.20;3.42;;;;;;;4.34;69.67;100467.72;5028072;28;106337;-76
2022/02/24 07:28:00;;;;;;;11.77;4.05;;;;;;;4.61;69.16;100458.50;5028338;28;106568;-77
2022/02/24 07:30:26;;;;;;;7.13;3.30;;;;;;;4.89;68.11;100457.94;5027751;28;106521;-76
2022/02/24 07:32:51;;;;;;;6.50;2.58;;;;;;;4.99;66.82;100465.94;5028863;28;112567;-78
2022/02/24 07:35:16;;;;;;;9.80;3.75;;;;;;;5.06;66.45;100464.47;5029990;28;107015;-76
2022/02/24 07:37:42;;;;;;;12.35;4.05;;;;;;;5.18;66.43;100462.59;5030853;28;106151;-77
2022/02/24 07:40:09;;;;;;;11.00;4.20;;;;;;;5.28;65.90;100441.53;5029754;28;106292;-75
2022/02/24 07:42:35;;;;;;;16.67;5.70;;;;;;;5.45;66.20;100442.72;5029829;28;106839;-77
2022/02/24 07:45:01;;;;;;;10.20;4.55;;;;;;;5.66;65.57;100440.06;5029479;28;106147;-77
2022/02/24 07:47:26;;;;;;;10.52;4.85;;;;;;;5.86;65.45;100435.69;5030239;27;105974;-74
2022/02/24 07:49:51;;;;;;;9.25;4.80;;;;;;;6.00;64.35;100431.03;5028599;28;105957;-75
2022/02/24 07:52:17;;;;;;;13.18;5.43;;;;;;;6.15;63.62;100428.84;5027681;28;112019;-74
2022/02/24 07:54:42;;;;;;;14.13;5.10;;;;;;;6.23;62.43;100432.50;5027413;28;106020;-73
2022/02/24 07:57:08;;;;;;;12.90;5.75;;;;;;;6.34;63.08;100436.84;5028650;28;106595;-78
2022/02/24 07:59:33;;;;;;;15.73;6.07;;;;;;;6.62;63.30;100439.66;5028968;28;105917;-76
2022/02/24 08:01:59;;;;;;;18.17;5.93;;;;;;;6.87;62.92;100437.41;5028824;28;106039;-75
2022/02/24 08:04:24;;;;;;;15.48;6.00;;;;;;;7.20;62.36;100437.94;5029589;28;105935;-74
2022/02/24 08:06:50;;;;;;;14.50;6.82;;;;;;;7.47;61.93;100428.41;5030115;28;105896;-72
2022/02/24 08:09:15;;;;;;;14.05;6.07;;;;;;;7.72;61.73;100426.91;5029634;27;106229;-74
2022/02/24 08:11:41;;;;;;;14.00;6.05;;;;;;;7.92;60.50;100431.16;5019786;28;107437;-73
2022/02/24 08:14:06;;;;;;;13.13;6.50;;;;;;;8.12;59.51;100431.88;5029696;28;106228;-74
2022/02/24 08:16:32;;;;;;;17.55;7.32;;;;;;;8.38;60.03;100425.88;5029608;28;105935;-72
2022/02/24 08:18:59;;;;;;;13.23;5.68;;;;;;;8.89;59.85;100428.03;5028935;28;106190;-74
2022/02/24 08:21:25;;;;;;;13.30;5.40;;;;;;;9.39;59.78;100432.72;5028705;28;105870;-72
2022/02/24 08:23:51;;;;;;;11.18;5.43;;;;;;;9.63;57.38;100425.84;5029248;28;106094;-70
2022/02/24 08:26:16;;;;;;;13.43;5.88;;;;;;;9.99;57.44;100420.34;5030433;28;106070;-76
2022/02/24 08:28:42;;;;;;;16.52;6.78;;;;;;;10.55;56.37;100406.53;5029373;28;106325;-73
2022/02/24 08:31:07;;;;;;;18.77;5.95;;;;;;;11.95;54.23;100401.03;5029440;28;107176;-77
2022/02/24 08:33:33;;;;;;;12.82;5.97;;;;;;;12.98;51.72;100382.94;5028938;28;106046;-75
2022/02/24 08:35:58;;;;;;;12.27;5.00;;;;;;;13.74;47.49;100392.69;5030393;28;105810;-76
2022/02/24 08:38:23;;;;;;;12.45;5.53;;;;;;;14.06;47.59;100378.06;5029221;28;106318;-73
2022/02/24 08:40:49;;;;;;;12.20;5.40;;;;;;;14.67;47.81;100374.19;5010020;28;106113;-70
2022/02/24 08:43:14;;;;;;;11.82;5.47;;;;;;;15.27;45.56;100373.78;5028693;28;106146;-71
2022/02/24 08:45:39;;;;;;;10.70;5.07;;;;;;;15.44;44.89;100375.13;5029387;28;106025;-73
2022/02/24 08:48:05;;;;;;;11.80;5.30;;;;;;;15.84;42.13;100386.13;5028618;28;106184;-69
2022/02/24 08:50:31;;;;;;;17.05;5.75;;;;;;;15.81;40.13;100378.44;5028386;28;105926;-72
2022/02/24 08:52:57;;;;;;;10.23;5.43;;;;;;;16.22;39.28;100376.72;5028278;28;106096;-70
2022/02/24 08:55:23;;;;;;;13.48;4.72;;;;;;;16.95;36.36;100359.88;5029439;28;106356;-72
2022/02/24 08:57:49;;;;;;;10.82;4.80;;;;;;;17.57;35.37;100362.25;5010120;28;106368;-74
2022/02/24 09:00:15;;;;;;;9.60;4.05;;;;;;;17.79;33.62;100373.56;5010331;28;106891;-71
2022/02/24 09:02:41;;;;;;;15.00;5.00;;;;;;;17.84;31.61;100367.53;5028756;28;106127;-70
2022/02/24 09:05:06;;;;;;;15.45;5.93;;;;;;;19.12;32.79;100362.97;5029174;28;105775;-70
2022/02/24 09:07:32;;;;;;;11.18;4.95;;;;;;;20.22;30.29;100369.38;5028478;28;106140;-73
2022/02/24 09:09:58;;;;;;;11.65;4.90;;;;;;;20.62;30.66;100362.56;5028818;28;106046;-74
2022/02/24 09:12:23;;;;;;;11.35;4.63;;;;;;;21.34;29.67;100360.72;5027558;28;106009;-70
2022/02/24 09:14:48;;;;;;;9.60;4.10;;;;;;;21.54;27.43;100355.78;5029360;28;105966;-71
2022/02/24 09:17:14;;;;;;;9.60;4.40;;;;;;;22.38;27.63;100353.59;5028412;28;106250;-70
2022/02/24 09:19:39;;;;;;;10.18;3.75;;;;;;;23.43;25.38;100339.47;5028149;28;105927;-73
2022/02/24 09:22:07;;;;;;;10.10;4.30;;;;;;;24.04;23.69;100343.97;5027973;28;106666;-72
2022/02/24 09:24:33;;;;;;;10.57;3.47;;;;;;;23.98;22.36;100351.28;5029150;28;106313;-73
2022/02/24 09:26:58;;;;;;;11.85;4.20;;;;;;;24.18;22.46;100347.94;5028578;28;106199;-77
2022/02/24 09:29:24;;;;;;;10.18;3.92;;;;;;;23.81;21.65;100346.72;5028280;28;105843;-73
2022/02/24 09:31:49;;;;;;;10.55;4.22;;;;;;;24.31;22.10;100338.53;5027887;28;106194;-72
2022/02/24 09:34:16;;;;;;;12.80;4.53;;;;;;;25.93;21.26;100327.25;5029454;28;106028;-72
2022/02/24 09:36:42;;;;;;;11.68;4.53;;;;;;;27.12;20.29;100330.81;5010120;28;106355;-75
2022/02/24 09:39:08;;;;;;;10.10;4.82;;;;;;;28.28;19.52;100326.19;5027521;28;107140;-74
2022/02/24 09:41:33;;;;;;;15.45;5.03;;;;;;;29.65;18.98;100329.72;5027538;28;106077;-73
2022/02/24 09:43:59;;;;;;;9.05;4.45;;;;;;;30.44;17.91;100319.25;5028677;28;106472;-73
2022/02/24 09:46:26;;;;;;;11.63;5.72;;;;;;;31.15;17.00;100319.09;5028404;28;105887;-72
2022/02/24 09:48:53;;;;;;;9.88;4.55;;;;;;;31.44;17.01;100323.47;5027215;28;106751;-74
2022/02/24 09:51:19;;;;;;;11.35;5.15;;;;;;;31.33;17.06;100306.34;5027765;28;106145;-74
2022/02/24 09:53:46;;;;;;;14.57;5.18;;;;;;;30.80;16.66;100308.47;5027607;28;105982;-75
2022/02/24 09:56:16;;;;;;;12.02;5.22;;;;;;;31.67;16.52;100297.66;5025359;28;106319;-71
2022/02/24 09:58:41;;;;;;;12.25;5.32;;;;;;;32.19;15.69;100293.72;5026730;28;106736;-74
2022/02/24 10:01:08;;;;;;;11.60;5.13;;;;;;;32.27;15.56;100283.88;5025034;28;106964;-73
2022/02/24 10:03:37;;;;;;;10.25;5.43;;;;;;;32.46;15.56;100276.22;5026059;28;106377;-72
2022/02/24 10:06:04;;;;;;;12.05;4.75;;;;;;;32.12;15.52;100277.59;5025620;28;106919;-72
2022/02/24 10:08:32;;;;;;;14.82;4.90;;;;;;;31.48;16.04;100269.41;5024988;28;107903;-71
2022/02/24 10:10:59;;;;;;;9.13;3.83;;;;;;;30.66;16.15;100267.19;5025195;28;106347;-72
2022/02/24 10:13:25;;;;;;;8.82;4.25;;;;;;;29.75;15.87;100249.16;5025129;28;106464;-73
2022/02/24 10:16:02;;;;;;;10.43;3.25;;;;;;;29.48;15.60;100250.63;5026593;28;106230;-72
2022/02/24 10:18:30;;;;;;;9.50;3.72;;;;;;;29.74;15.72;100244.78;5009115;28;109130;-73
2022/02/24 10:21:00;;;;;;;8.10;3.30;;;;;;;29.60;14.95;100241.97;5026676;28;105974;-72
2022/02/24 10:23:32;;;;;;;11.65;4.82;;;;;;;29.83;14.92;100239.44;5028392;28;106196;-73
2022/02/24 10:26:04;;;;;;;9.25;3.47;;;;;;;31.08;14.39;100231.47;5026837;28;106197;-73
2022/02/24 10:28:42;;;;;;;8.45;3.22;;;;;;;32.10;13.43;100229.47;5027305;28;106089;-72
2022/02/24 10:31:21;;;;;;;8.55;2.97;;;;;;;32.34;12.92;100218.94;5027312;28;106109;-75
2022/02/24 10:33:51;;;;;;;9.13;3.35;;;;;;;33.03;12.74;100212.06;5028219;27;105990;-76
2022/02/24 10:36:24;;;;;;;7.47;3.08;;;;;;;33.78;12.59;100207.59;5030872;28;106180;-76
2022/02/24 10:39:13;;;;;;;7.57;3.83;;;;;;;32.78;12.83;100194.31;5030444;28;107913;-74
2022/02/24 10:41:44;;;;;;;7.10;3.17;;;;;;;32.10;13.46;100197.19;5030257;28;106040;-75
2022/02/24 10:44:10;;;;;;;7.75;3.38;;;;;;;32.13;13.83;100191.06;5031746;28;105896;-75
2022/02/24 10:46:35;;;;;;;7.93;3.60;;;;;;;30.78;14.58;100186.94;5030091;28;106099;-77
2022/02/24 10:49:01;;;;;;;7.70;3.30;;;;;;;29.28;15.44;100169.44;5029788;28;120712;-73
2022/02/24 10:51:34;;;;;;;11.38;3.75;;;;;;;27.39;16.45;100171.00;5029964;28;108062;-73
2022/02/24 10:54:06;;;;;;;6.70;3.38;;;;;;;25.34;17.99;100173.81;5030378;28;106148;-72
2022/02/24 10:56:33;;;;;;;11.13;3.63;;;;;;;23.24;19.30;100159.56;5030585;28;106112;-72
2022/02/24 10:58:59;;;;;;;10.20;4.50;;;;;;;21.56;20.72;100163.91;5029326;28;106375;-72
2022/02/24 11:01:26;;;;;;;10.38;3.70;;;;;;;20.54;21.54;100162.63;5030103;28;105903;-73
2022/02/24 11:03:54;;;;;;;9.10;3.20;;;;;;;20.32;21.86;100165.13;5030805;28;105925;-73
2022/02/24 11:06:22;;;;;;;9.57;3.45;;;;;;;19.94;22.13;100157.22;5030548;28;106718;-72
2022/02/24 11:08:50;;;;;;;10.18;3.78;;;;;;;19.65;22.42;100150.78;5030254;28;105861;-71
2022/02/24 11:11:19;;;;;;;8.73;3.40;;;;;;;18.90;22.94;100152.84;5029172;28;106018;-71
2022/02/24 11:13:45;;;;;;;7.30;3.40;;;;;;;17.80;24.06;100140.78;5030608;28;106015;-73
2022/02/24 11:16:10;;;;;;;10.52;3.28;;;;;;;16.85;25.17;100153.13;5030291;28;106277;-71
2022/02/24 11:18:38;;;;;;;7.05;3.10;;;;;;;16.01;25.99;100127.84;5030110;28;105886;-70
2022/02/24 11:21:05;;;;;;;8.20;3.30;;;;;;;15.57;27.05;100117.47;5028472;28;106016;-71
2022/02/24 11:23:30;;;;;;;11.32;4.43;;;;;;;15.51;27.45;100123.66;5030994;28;105931;-73
2022/02/24 11:26:20;;;;;;;9.20;3.63;;;;;;;15.96;27.70;100114.19;5030075;28;106209;-73
2022/02/24 11:29:27;;;;;;;7.47;3.38;;;;;;;16.58;27.21;100110.16;5030068;28;106024;-73
2022/02/24 11:32:10;;;;;;;9.25;3.78;;;;;;;16.85;26.62;100101.16;5020844;28;106183;-74
2022/02/24 11:35:07;;;;;;;11.40;3.58;;;;;;;16.56;27.08;100101.47;5011954;28;105947;-76
2022/02/24 11:37:32;;;;;;;8.00;3.45;;;;;;;16.57;27.28;100100.44;5011437;28;106273;-73
2022/02/24 11:40:01;;;;;;;9.60;2.97;;;;;;;16.70;27.49;100098.72;5029655;28;105867;-74
2022/02/24 11:42:29;;;;;;;8.33;4.00;;;;;;;16.90;27.37;100094.13;5028335;28;105961;-75
2022/02/24 11:44:55;;;;;;;9.02;3.22;;;;;;;17.85;26.40;100100.56;5030139;27;106394;-74
2022/02/24 11:47:22;;;;;;;13.02;3.53;;;;;;;18.45;25.53;100088.38;5029563;28;106687;-77
2022/02/24 14:31:13;;;;;;;5.70;3.05;;;;;;;10.06;41.75;99853.63;5006661;28;105997;-74
2022/02/24 14:33:39;;;;;;;4.65;2.60;;;;;;;10.03;42.50;99844.16;5005185;28;105889;-73
2022/02/24 14:36:06;;;;;;;3.90;2.42;;;;;;;9.98;42.59;99844.69;5002408;28;106302;-73
2022/02/24 14:38:32;;;;;;;9.63;3.50;;;;;;;9.97;42.90;99842.22;5006327;28;106464;-74
2022/02/24 14:40:57;;;;;;;10.63;4.05;;;;;;;9.97;43.15;99842.22;5012119;28;106403;-75
2022/02/24 14:43:23;;;;;;;7.07;2.97;;;;;;;9.94;42.83;99831.94;5021520;28;106426;-74
2022/02/24 14:45:49;;;;;;;7.15;3.20;;;;;;;9.90;43.09;99825.31;5010640;28;106586;-74
2022/02/24 14:48:17;;;;;;;6.38;3.78;;;;;;;9.85;43.60;99822.34;5021046;28;106008;-73
2022/02/24 14:50:43;;;;;;;6.10;2.35;;;;;;;9.75;44.30;99827.88;5008787;28;105862;-74
2022/02/24 14:53:08;;;;;;;8.45;3.78;;;;;;;9.67;44.00;99818.09;5017360;27;105987;-73
2022/02/24 14:55:36;;;;;;;4.93;2.88;;;;;;;9.62;44.85;99823.09;5014794;28;107402;-74
2022/02/24 14:58:02;;;;;;;10.85;3.42;;;;;;;9.55;44.83;99811.50;5008839;27;106386;-73
2022/02/24 15:00:30;;;;;;;6.63;3.45;;;;;;;9.47;44.49;99809.69;5020952;28;106011;-75
2022/02/24 15:02:55;;;;;;;7.82;4.22;;;;;;;9.38;44.77;99803.59;5011407;28;105930;-73
2022/02/24 15:05:22;;;;;;;10.82;4.43;;;;;;;9.32;44.69;99805.09;5013320;28;106275;-73
2022/02/24 15:07:47;;;;;;;12.40;5.00;;;;;;;9.28;45.08;99800.28;5017151;28;106463;-73
2022/02/24 15:10:14;;;;;;;9.38;3.90;;;;;;;9.21;44.73;99800.13;5007331;27;106499;-72
2022/02/24 15:12:39;;;;;;;6.32;3.33;;;;;;;9.16;45.53;99791.88;5020367;28;107071;-72
2022/02/24 15:15:05;;;;;;;7.28;4.22;;;;;;;9.10;45.94;99797.84;5012270;28;106218;-73
2022/02/24 15:17:31;;;;;;;5.85;3.20;;;;;;;9.06;45.49;99812.47;5024262;28;107149;-73
2022/02/24 15:19:57;;;;;;;7.63;3.55;;;;;;;8.99;46.24;99788.41;5023710;27;106142;-72
2022/02/24 15:22:23;;;;;;;8.45;3.85;;;;;;;8.93;46.05;99783.78;5024936;27;105893;-72
2022/02/24 15:24:48;;;;;;;5.43;3.17;;;;;;;8.85;46.34;99774.00;5024353;27;106027;-74
2022/02/24 15:27:13;;;;;;;12.32;4.43;;;;;;;8.76;46.90;99780.31;5024110;27;106978;-73
2022/02/24 15:29:39;;;;;;;11.50;4.55;;;;;;;8.66;46.76;99788.47;5022944;28;106353;-73
2022/02/24 15:32:04;;;;;;;11.75;4.30;;;;;;;8.61;47.41;99782.81;5024699;27;105965;-71
2022/02/24 15:34:31;;;;;;;7.95;4.25;;;;;;;8.55;47.78;99781.69;5022913;27;106102;-73
2022/02/24 15:36:57;;;;;;;12.98;5.88;;;;;;;8.48;47.58;99779.88;5022885;28;106731;-74
2022/02/24 15:39:23;;;;;;;9.55;5.32;;;;;;;8.40;48.12;99778.81;5023344;28;105888;-75
2022/02/24 15:41:48;;;;;;;14.48;6.90;;;;;;;8.37;47.62;99768.56;5015170;27;106132;-73
2022/02/24 15:44:13;;;;;;;15.88;5.15;;;;;;;8.36;48.13;99774.03;5010411;28;105830;-73
2022/02/24 15:46:39;;;;;;;8.95;4.55;;;;;;;8.37;47.78;99781.81;5010313;28;105863;-72
2022/02/24 15:49:04;;;;;;;8.38;4.18;;;;;;;8.36;48.23;99760.75;5009497;28;105869;-71
2022/02/24 15:51:30;;;;;;;7.22;3.97;;;;;;;8.36;48.14;99764.22;4988134;28;106057;-72
2022/02/24 15:53:55;;;;;;;10.48;5.15;;;;;;;8.37;48.16;99776.50;4988953;28;106668;-71
2022/02/24 15:56:20;;;;;;;9.65;4.93;;;;;;;8.36;48.18;99756.28;4988669;28;106540;-73
2022/02/24 15:58:46;;;;;;;10.02;4.65;;;;;;;8.33;47.63;99746.00;4988801;28;108975;-71
2022/02/24 16:01:12;;;;;;;9.82;4.80;;;;;;;8.34;48.23;99750.31;4989061;28;106677;-72
2022/02/24 16:03:38;;;;;;;9.85;4.07;;;;;;;8.30;48.15;99743.69;4989177;28;105995;-71
2022/02/24 16:06:04;;;;;;;8.55;4.40;;;;;;;8.26;48.22;99743.16;4989156;28;106122;-71
2022/02/24 16:08:31;;;;;;;5.95;4.03;;;;;;;8.20;48.35;99746.50;4988929;28;105991;-71
2022/02/24 16:10:58;;;;;;;10.07;4.95;;;;;;;8.17;48.67;99743.34;4989340;28;106185;-71
2022/02/24 16:13:25;;;;;;;14.98;5.75;;;;;;;8.14;48.64;99726.75;4988619;28;106537;-73
2022/02/24 16:15:50;;;;;;;13.68;6.43;;;;;;;8.08;48.66;99724.78;4987566;28;106588;-74
2022/02/24 16:18:16;;;;;;;15.88;5.70;;;;;;;8.05;49.00;99727.75;4988597;28;106003;-74
2022/02/24 16:20:41;;;;;;;13.65;6.20;;;;;;;8.01;48.89;99715.81;4989368;28;105991;-74
2022/02/24 16:23:07;;;;;;;16.17;6.18;;;;;;;7.95;49.55;99713.81;4988405;28;106292;-72
2022/02/24 16:25:33;;;;;;;10.85;4.93;;;;;;;7.89;49.08;99717.13;4984403;28;106064;-72
2022/02/24 16:27:58;;;;;;;12.75;6.25;;;;;;;7.83;50.04;99731.03;4970229;28;106417;-71
2022/02/24 16:30:24;;;;;;;12.75;5.03;;;;;;;7.74;49.86;99720.41;4970421;28;106244;-72
2022/02/24 16:32:49;;;;;;;14.35;5.43;;;;;;;7.69;49.40;99727.22;4970007;28;106207;-72
2022/02/24 16:35:15;;;;;;;13.85;5.70;;;;;;;7.67;49.92;99721.22;4969378;28;105974;-72
2022/02/24 16:37:41;;;;;;;14.45;5.22;;;;;;;7.64;50.01;99725.06;4969852;28;105851;-72
2022/02/24 16:40:07;;;;;;;12.95;5.07;;;;;;;7.58;49.47;99718.56;4971071;28;105834;-71
2022/02/24 16:42:32;;;;;;;11.68;5.68;;;;;;;7.54;49.68;99725.19;4969893;28;106184;-72
2022/02/24 16:44:57;;;;;;;11.27;5.13;;;;;;;7.52;49.68;99727.19;4969596;28;105930;-72
2022/02/24 16:47:23;;;;;;;10.52;4.53;;;;;;;7.51;50.45;99712.25;4969690;28;105881;-71
2022/02/24 16:49:49;;;;;;;8.23;4.13;;;;;;;7.50;49.81;99730.97;4969741;28;106484;-72
2022/02/24 16:52:15;;;;;;;8.18;3.85;;;;;;;7.54;50.18;99722.53;4969497;28;106569;-71
2022/02/24 16:54:41;;;;;;;5.90;3.50;;;;;;;7.58;49.89;99717.75;4967808;28;106883;-72
2022/02/24 16:57:06;;;;;;;7.40;3.90;;;;;;;7.56;50.08;99720.56;4969895;28;105931;-71
2022/02/24 16:59:35;;;;;;;12.25;4.35;;;;;;;7.53;49.69;99715.59;4970462;28;105994;-72
2022/02/24 17:02:08;;;;;;;9.38;3.75;;;;;;;7.51;49.31;99700.84;4969627;28;106215;-72
2022/02/24 17:04:34;;;;;;;10.85;4.72;;;;;;;7.48;50.02;99706.44;4969182;28;105986;-71
2022/02/24 17:07:00;;;;;;;9.13;4.70;;;;;;;7.43;49.82;99705.09;4968853;28;106110;-72
2022/02/24 17:09:26;;;;;;;12.02;5.78;;;;;;;7.42;49.41;99698.16;4970283;28;105838;-72
2022/02/24 17:11:52;;;;;;;13.63;4.95;;;;;;;7.42;49.58;99692.03;4969417;28;106332;-71
2022/02/24 17:14:19;;;;;;;10.80;4.47;;;;;;;7.43;49.91;99691.03;4969403;28;105781;-71
2022/02/24 17:16:46;;;;;;;10.80;4.65;;;;;;;7.40;49.95;99683.41;4969152;28;106058;-70
2022/02/24 17:19:11;;;;;;;6.88;3.63;;;;;;;7.41;50.00;99688.56;4970124;28;106017;-71
2022/02/24 17:21:38;;;;;;;8.00;3.38;;;;;;;7.45;50.04;99681.94;4969266;28;106196;-73
2022/02/24 17:24:05;;;;;;;9.70;4.20;;;;;;;7.48;49.79;99674.63;4968648;28;105935;-72
2022/02/24 17:26:35;;;;;;;6.55;3.03;;;;;;;7.53;49.98;99672.34;4968502;28;106022;-72
2022/02/24 17:29:03;;;;;;;10.32;3.85;;;;;;;7.59;49.07;99669.03;4970163;28;106307;-71
2022/02/24 17:31:33;;;;;;;9.63;4.22;;;;;;;7.60;49.13;99674.19;4969274;28;106022;-72
2022/02/24 17:33:59;;;;;;;8.57;4.60;;;;;;;7.61;49.14;99677.66;4968823;28;106163;-71
2022/02/24 17:36:25;;;;;;;8.57;4.53;;;;;;;7.60;49.52;99665.41;4968654;28;106855;-71
2022/02/24 17:38:51;;;;;;;11.50;5.07;;;;;;;7.54;49.64;99674.81;4969363;28;106099;-71
2022/02/24 17:41:16;;;;;;;15.38;5.00;;;;;;;7.46;49.88;99666.84;4968960;28;106248;-70
2022/02/24 17:43:42;;;;;;;14.93;5.90;;;;;;;7.40;49.55;99670.16;4968371;28;106030;-72
2022/02/24 17:46:07;;;;;;;13.68;6.75;;;;;;;7.33;49.84;99661.22;4968392;28;106065;-70
2022/02/24 17:48:34;;;;;;;14.93;6.00;;;;;;;7.25;50.47;99669.97;4969094;28;106028;-71
2022/02/24 17:51:00;;;;;;;9.23;5.07;;;;;;;7.17;50.78;99657.50;4968988;28;106384;-72
2022/02/24 17:53:26;;;;;;;13.32;5.40;;;;;;;7.13;51.13;99650.06;4968422;28;106710;-72
2022/02/24 17:55:52;;;;;;;15.35;6.75;;;;;;;7.05;50.98;99642.91;4968808;28;105916;-72
2022/02/24 17:58:17;;;;;;;18.02;5.28;;;;;;;7.01;51.56;99644.22;4969965;28;105878;-71
2022/02/24 18:00:43;;;;;;;14.52;6.97;;;;;;;6.94;51.67;99644.03;4969149;28;106383;-71
2022/02/24 18:03:09;;;;;;;14.93;6.95;;;;;;;6.88;51.54;99642.84;4967149;28;105967;-71
2022/02/24 18:05:35;;;;;;;13.88;6.90;;;;;;;6.82;51.73;99637.38;4968673;28;106051;-72
2022/02/24 18:08:00;;;;;;;19.80;8.93;;;;;;;6.76;52.26;99641.47;4969371;28;106086;-72
2022/02/24 18:10:30;;;;;;;24.60;8.77;;;;;;;6.72;52.05;99642.78;4968931;28;106119;-72
2022/02/24 18:12:57;;;;;;;21.77;10.83;;;;;;;6.64;52.44;99640.09;4968356;28;106382;-69
2022/02/24 18:15:23;;;;;;;23.00;11.13;;;;;;;6.52;52.72;99632.44;4967509;28;106069;-70
2022/02/24 18:17:49;;;;;;;23.10;11.00;;;;;;;6.44;53.46;99630.56;4968605;28;105828;-73
2022/02/24 18:20:15;;;;;;;25.30;9.88;;;;;;;6.42;53.68;99632.56;4967949;28;106208;-75
2022/02/24 18:22:41;;;;;;;17.20;7.40;;;;;;;6.44;54.17;99630.56;4968613;28;105930;-72
2022/02/24 18:25:08;;;;;;;18.63;9.45;;;;;;;6.49;54.31;99634.56;4968518;28;106017;-71
2022/02/24 18:27:34;;;;;;;19.05;9.10;;;;;;;6.53;54.74;99633.28;4969424;28;106218;-72
2022/02/24 18:29:59;;;;;;;15.18;7.00;;;;;;;6.58;54.27;99626.50;4967785;28;106163;-73
2022/02/24 18:32:26;;;;;;;13.95;6.88;;;;;;;6.64;54.36;99640.09;4968475;28;111820;-73
2022/02/24 18:34:52;;;;;;;10.80;5.95;;;;;;;6.70;54.73;99623.59;4967780;28;106120;-75
2022/02/24 18:37:17;;;;;;;12.45;6.55;;;;;;;6.74;54.81;99623.13;4968973;28;105933;-76
2022/02/24 18:39:42;;;;;;;15.52;7.10;;;;;;;6.80;54.79;99618.19;4967936;28;106132;-73
2022/02/24 18:42:09;;;;;;;11.60;5.22;;;;;;;6.86;55.04;99622.81;4967136;28;121705;-73
2022/02/24 18:44:35;;;;;;;12.77;6.38;;;;;;;6.95;54.27;99621.88;4966092;28;106846;-74
2022/02/24 18:47:01;;;;;;;9.30;3.88;;;;;;;7.05;54.81;99617.28;4967958;28;105950;-76
2022/02/24 18:49:26;;;;;;;14.85;6.35;;;;;;;7.13;54.41;99615.63;4966248;28;106133;-74
2022/02/24 18:51:52;;;;;;;11.77;6.32;;;;;;;7.18;54.20;99610.69;4978773;28;106281;-73
2022/02/24 18:54:18;;;;;;;12.38;5.18;;;;;;;7.22;54.67;99596.13;4986129;28;107370;-75
2022/02/24 18:56:44;;;;;;;10.05;6.15;;;;;;;7.28;54.08;99590.16;4987096;28;106123;-74
2022/02/24 18:59:12;;;;;;;13.02;5.95;;;;;;;7.33;54.23;99582.53;4986365;28;106474;-73
2022/02/24 19:01:37;;;;;;;12.10;4.75;;;;;;;7.37;54.42;99586.53;4986349;28;106519;-74
2022/02/24 19:04:03;;;;;;;9.45;4.28;;;;;;;7.39;53.83;99581.88;4985501;28;106369;-74
2022/02/24 19:06:28;;;;;;;9.95;4.53;;;;;;;7.44;53.78;99576.91;4986814;28;106002;-73
2022/02/24 19:08:54;;;;;;;8.38;4.30;;;;;;;7.43;54.07;99572.59;4985878;28;106923;-73
2022/02/24 19:11:22;;;;;;;8.07;4.72;;;;;;;7.43;53.83;99569.94;4985914;28;105938;-75
2022/02/24 19:13:47;;;;;;;9.98;4.43;;;;;;;7.42;54.10;99565.66;4985336;28;106122;-74
2022/02/24 19:16:13;;;;;;;8.40;5.00;;;;;;;7.42;53.54;99563.00;4987076;28;106073;-73
2022/02/24 19:18:38;;;;;;;16.30;6.53;;;;;;;7.43;54.14;99569.94;4989265;28;106135;-74
2022/02/24 19:21:06;;;;;;;9.68;5.28;;;;;;;7.43;54.06;99569.13;4989375;28;106376;-75
2022/02/24 19:23:31;;;;;;;11.45;5.82;;;;;;;7.40;54.17;99574.78;4988863;28;106109;-72
2022/02/24 19:25:56;;;;;;;12.45;4.18;;;;;;;7.39;53.75;99568.63;4989932;28;105969;-74
2022/02/24 19:28:22;;;;;;;10.90;5.53;;;;;;;7.38;54.09;99559.03;4987527;28;106324;-74
2022/02/24 19:30:47;;;;;;;11.57;5.35;;;;;;;7.37;53.99;99561.84;4988573;28;106453;-69
2022/02/24 19:33:13;;;;;;;11.10;5.18;;;;;;;7.37;54.31;99570.63;4988653;28;106549;-71
2022/02/24 19:35:38;;;;;;;10.05;4.55;;;;;;;7.41;53.84;99548.09;4989671;28;106059;-73
2022/02/24 19:38:03;;;;;;;9.52;4.97;;;;;;;7.38;54.04;99553.75;4988236;28;111675;-73
2022/02/24 19:40:29;;;;;;;9.00;4.13;;;;;;;7.38;53.74;99551.09;4988816;28;106642;-73
2022/02/24 19:42:55;;;;;;;9.85;3.92;;;;;;;7.39;53.78;99552.72;4988985;28;106051;-72
2022/02/24 19:45:20;;;;;;;11.82;4.72;;;;;;;7.36;54.32;99554.91;4989622;28;106542;-73
2022/02/24 19:47:45;;;;;;;7.75;5.50;;;;;;;7.39;54.06;99547.41;4988878;28;106180;-74